Time;durP1;ratioP1;P1;durP2;ratioP2;P2;SDS_P1;SDS_P2;PMS_P1;PMS_P2;Temp;Humidity;BMP_temperature;BMP_pressure;BME280_temperature;BME280_humidity;BME280_pressure;Samples;Min_cycle;Max_cycle;Signal;HPM_P1;HPM_P2
2021/03/13 00:00:31;;;;;;;4.97;3.85;;;;;;;;;;4975502;28;20187;-53
2021/03/13 00:02:58;;;;;;;10.73;7.97;;;;;;;;;;4982006;28;20113;-49
2021/03/13 00:05:24;;;;;;;12.55;5.28;;;;;;;;;;4978097;28;20137;-51
2021/03/13 00:07:49;;;;;;;10.38;4.43;;;;;;;;;;4977673;28;20496;-52
2021/03/13 00:10:15;;;;;;;5.80;3.13;;;;;;;;;;4985698;28;20030;-53
2021/03/13 00:12:40;;;;;;;4.68;2.40;;;;;;;;;;4977660;28;20089;-51
2021/03/13 00:15:06;;;;;;;7.57;2.38;;;;;;;;;;4972545;28;20030;-52
2021/03/13 00:17:31;;;;;;;6.75;4.05;;;;;;;;;;4974026;28;20054;-51
2021/03/13 00:19:58;;;;;;;6.22;2.97;;;;;;;;;;4979264;28;20034;-53
2021/03/13 00:22:23;;;;;;;16.63;4.03;;;;;;;;;;4981712;28;20034;-54
2021/03/13 00:24:48;;;;;;;10.20;4.30;;;;;;;;;;4978225;28;20462;-51
2021/03/13 00:27:14;;;;;;;9.20;3.90;;;;;;;;;;4974651;28;20046;-54
2021/03/13 00:29:39;;;;;;;6.43;2.42;;;;;;;;;;4976619;28;20374;-51
2021/03/13 00:32:05;;;;;;;7.10;4.03;;;;;;;;;;4977539;28;20046;-50
2021/03/13 00:34:30;;;;;;;9.10;2.83;;;;;;;;;;4979214;28;20373;-51
2021/03/13 00:36:56;;;;;;;8.35;3.35;;;;;;;;;;4973963;28;20041;-51
2021/03/13 00:39:21;;;;;;;7.20;2.03;;;;;;;;;;4981939;28;20030;-53
2021/03/13 00:41:46;;;;;;;6.75;3.83;;;;;;;;;;4978086;28;20768;-51
2021/03/13 00:44:12;;;;;;;3.83;3.05;;;;;;;;;;4973159;28;20042;-52
2021/03/13 00:46:37;;;;;;;3.05;1.85;;;;;;;;;;4978270;28;20035;-53
2021/03/13 00:49:05;;;;;;;7.47;3.17;;;;;;;;;;4978422;28;20030;-52
2021/03/13 00:51:30;;;;;;;11.63;3.45;;;;;;;;;;4974765;28;20116;-50
2021/03/13 00:53:59;;;;;;;6.75;2.28;;;;;;;;;;4975556;28;20022;-53
2021/03/13 00:56:24;;;;;;;11.77;3.00;;;;;;;;;;4981021;28;20034;-52
2021/03/13 00:58:49;;;;;;;6.93;2.40;;;;;;;;;;4981571;28;20027;-50
2021/03/13 01:01:15;;;;;;;9.07;3.42;;;;;;;;;;4968675;28;20114;-49
2021/03/13 01:03:40;;;;;;;9.07;2.80;;;;;;;;;;4976991;28;20480;-52
2021/03/13 01:06:06;;;;;;;8.27;3.60;;;;;;;;;;4977594;28;20026;-51
2021/03/13 01:08:31;;;;;;;3.10;1.88;;;;;;;;;;4984571;28;20038;-53
2021/03/13 01:10:56;;;;;;;7.60;1.73;;;;;;;;;;4977571;28;20370;-50
2021/03/13 01:13:22;;;;;;;12.70;3.20;;;;;;;;;;4974226;28;20030;-53
2021/03/13 01:15:47;;;;;;;3.65;1.17;;;;;;;;;;4980874;28;20429;-53
2021/03/13 01:18:13;;;;;;;3.22;1.58;;;;;;;;;;4980099;28;20605;-52
2021/03/13 01:20:38;;;;;;;3.42;1.58;;;;;;;;;;4973640;28;20058;-53
2021/03/13 01:23:03;;;;;;;6.18;3.00;;;;;;;;;;4980753;28;20034;-53
2021/03/13 01:25:29;;;;;;;5.05;3.33;;;;;;;;;;4968592;28;20023;-52
2021/03/13 01:27:54;;;;;;;10.55;2.08;;;;;;;;;;4973557;28;20038;-51
2021/03/13 01:30:21;;;;;;;5.88;2.17;;;;;;;;;;4970766;28;20499;-50
2021/03/13 01:32:47;;;;;;;3.17;2.20;;;;;;;;;;4975494;28;20035;-54
2021/03/13 01:35:12;;;;;;;4.22;2.85;;;;;;;;;;4974626;28;20484;-53
2021/03/13 01:37:38;;;;;;;5.32;3.30;;;;;;;;;;4980328;28;20042;-51
2021/03/13 01:40:07;;;;;;;2.28;1.02;;;;;;;;;;4972907;28;20134;-55
2021/03/13 01:42:33;;;;;;;5.07;1.50;;;;;;;;;;4975194;28;20142;-54
2021/03/13 01:44:59;;;;;;;3.13;2.13;;;;;;;;;;4971281;28;20065;-53
2021/03/13 01:47:24;;;;;;;4.90;2.72;;;;;;;;;;4983320;28;20169;-53
2021/03/13 01:49:51;;;;;;;8.73;8.02;;;;;;;;;;4962287;28;20525;-53
2021/03/13 01:52:16;;;;;;;9.07;2.90;;;;;;;;;;4978989;28;20042;-51
2021/03/13 01:54:42;;;;;;;5.05;3.03;;;;;;;;;;4970658;28;20041;-54
2021/03/13 01:57:07;;;;;;;7.88;2.90;;;;;;;;;;4980208;28;20109;-54
2021/03/13 01:59:33;;;;;;;2.50;1.30;;;;;;;;;;4957801;28;20889;-50
2021/03/13 02:01:58;;;;;;;1.10;0.55;;;;;;;;;;4955010;28;20121;-51
2021/03/13 02:04:24;;;;;;;5.25;1.65;;;;;;;;;;4975883;28;20088;-51
2021/03/13 02:07:00;;;;;;;5.47;2.17;;;;;;;;;;4979365;28;20030;-52
2021/03/13 02:09:31;;;;;;;5.97;1.58;;;;;;;;;;4976479;28;20031;-53
2021/03/13 02:12:04;;;;;;;1.58;0.93;;;;;;;;;;4967362;28;20043;-52
2021/03/13 02:14:50;;;;;;;1.70;0.75;;;;;;;;;;4969275;28;20081;-48
2021/03/13 02:17:26;;;;;;;3.28;1.80;;;;;;;;;;4942137;28;20058;-54
2021/03/13 02:20:24;;;;;;;2.53;1.33;;;;;;;;;;4976724;28;20049;-54
2021/03/13 02:22:50;;;;;;;2.33;1.35;;;;;;;;;;4928061;28;20069;-53
2021/03/13 02:25:45;;;;;;;4.40;1.90;;;;;;;;;;4976049;28;20361;-54
2021/03/13 02:28:16;;;;;;;2.45;1.35;;;;;;;;;;4949486;28;20748;-53
2021/03/13 02:30:41;;;;;;;8.20;1.55;;;;;;;;;;4981864;28;20379;-53
2021/03/13 02:33:18;;;;;;;2.22;1.30;;;;;;;;;;4970491;28;20885;-54
2021/03/13 02:35:46;;;;;;;2.05;0.98;;;;;;;;;;4981958;28;20141;-48
2021/03/13 02:38:13;;;;;;;2.85;1.23;;;;;;;;;;4972187;28;20042;-50
2021/03/13 02:40:40;;;;;;;3.45;1.23;;;;;;;;;;4981427;28;20100;-53
2021/03/13 02:43:09;;;;;;;1.50;0.68;;;;;;;;;;4966467;28;20141;-52
2021/03/13 02:45:36;;;;;;;1.48;1.00;;;;;;;;;;4983170;28;20056;-51
2021/03/13 02:48:04;;;;;;;0.93;0.60;;;;;;;;;;4976961;28;20041;-52
2021/03/13 02:50:30;;;;;;;1.75;0.90;;;;;;;;;;4980153;28;20030;-51
2021/03/13 02:52:56;;;;;;;2.92;1.73;;;;;;;;;;4976669;28;20041;-55
2021/03/13 02:55:25;;;;;;;3.28;1.00;;;;;;;;;;4983039;28;20031;-52
2021/03/13 02:57:52;;;;;;;3.30;1.23;;;;;;;;;;4978619;28;20038;-53
2021/03/13 03:00:19;;;;;;;1.33;0.75;;;;;;;;;;4972052;28;20034;-50
2021/03/13 03:02:47;;;;;;;1.13;0.68;;;;;;;;;;4980328;28;20030;-53
2021/03/13 03:05:15;;;;;;;3.92;1.00;;;;;;;;;;4975405;28;20037;-50
2021/03/13 03:07:41;;;;;;;3.83;1.60;;;;;;;;;;4979979;28;20137;-52
2021/03/13 03:10:07;;;;;;;8.18;1.05;;;;;;;;;;4983026;28;20068;-48
2021/03/13 03:12:33;;;;;;;1.30;0.80;;;;;;;;;;4974941;28;20065;-52
2021/03/13 03:15:00;;;;;;;5.65;1.52;;;;;;;;;;4978721;28;20113;-53
2021/03/13 03:17:26;;;;;;;1.80;1.30;;;;;;;;;;4978934;28;20090;-52
2021/03/13 03:19:57;;;;;;;2.47;1.13;;;;;;;;;;4975150;28;20030;-53
2021/03/13 03:22:23;;;;;;;5.13;1.57;;;;;;;;;;4974534;28;20038;-49
2021/03/13 03:24:48;;;;;;;1.48;0.80;;;;;;;;;;4985163;28;20398;-52
2021/03/13 03:27:14;;;;;;;2.47;0.68;;;;;;;;;;4969813;28;20544;-49
2021/03/13 03:29:39;;;;;;;2.33;1.45;;;;;;;;;;4985018;28;20034;-54
2021/03/13 03:32:04;;;;;;;1.45;0.95;;;;;;;;;;4970916;28;20045;-55
2021/03/13 03:34:30;;;;;;;2.03;0.95;;;;;;;;;;4976881;28;20417;-55
2021/03/13 03:36:55;;;;;;;2.72;1.40;;;;;;;;;;4983918;28;20038;-52
2021/03/13 03:39:20;;;;;;;2.22;1.02;;;;;;;;;;4987029;28;20034;-52
2021/03/13 03:41:48;;;;;;;1.20;0.60;;;;;;;;;;4970809;28;20030;-51
2021/03/13 03:44:27;;;;;;;0.82;0.57;;;;;;;;;;4948388;28;20034;-55
2021/03/13 03:46:59;;;;;;;1.55;0.68;;;;;;;;;;4978872;28;20026;-50
2021/03/13 03:49:25;;;;;;;4.15;1.63;;;;;;;;;;4983354;28;20431;-54
2021/03/13 03:51:51;;;;;;;3.90;0.90;;;;;;;;;;4975225;28;20476;-54
2021/03/13 03:54:17;;;;;;;0.75;0.52;;;;;;;;;;4982090;28;20465;-52
2021/03/13 03:56:43;;;;;;;3.22;1.25;;;;;;;;;;4983483;28;20061;-54
2021/03/13 03:59:14;;;;;;;2.05;0.95;;;;;;;;;;4985899;28;20122;-52
2021/03/13 04:01:39;;;;;;;;;;;;;;;;;;4979084;28;20408;-52
2021/03/13 04:04:07;;;;;;;1.27;0.67;;;;;;;;;;4978212;28;20020;-53
2021/03/13 04:06:32;;;;;;;2.88;0.75;;;;;;;;;;4962609;28;20058;-55
2021/03/13 04:08:58;;;;;;;0.60;0.60;;;;;;;;;;4971964;28;20165;-52
2021/03/13 04:11:24;;;;;;;4.18;0.77;;;;;;;;;;4979223;28;20136;-54
2021/03/13 04:13:51;;;;;;;5.85;0.57;;;;;;;;;;4979807;28;20113;-50
2021/03/13 04:16:16;;;;;;;3.25;1.00;;;;;;;;;;4977502;28;20027;-54
2021/03/13 04:18:42;;;;;;;4.47;1.35;;;;;;;;;;4981717;28;20112;-53
2021/03/13 04:21:07;;;;;;;1.77;0.95;;;;;;;;;;4977969;28;20031;-52
2021/03/13 04:23:37;;;;;;;2.17;0.82;;;;;;;;;;4986131;28;20487;-52
2021/03/13 04:26:03;;;;;;;2.03;0.55;;;;;;;;;;4977913;28;20141;-54
2021/03/13 04:28:28;;;;;;;1.50;1.20;;;;;;;;;;4980783;28;20030;-50
2021/03/13 04:30:54;;;;;;;1.70;0.70;;;;;;;;;;4980887;28;20323;-53
2021/03/13 04:33:20;;;;;;;1.83;0.77;;;;;;;;;;4987914;28;20093;-53
2021/03/13 04:35:46;;;;;;;1.73;0.95;;;;;;;;;;4989191;28;20060;-51
2021/03/13 04:38:13;;;;;;;1.77;0.82;;;;;;;;;;4985759;28;20038;-52
2021/03/13 04:40:38;;;;;;;2.47;1.52;;;;;;;;;;4983036;28;20030;-51
2021/03/13 04:43:04;;;;;;;1.60;1.25;;;;;;;;;;4987513;28;20034;-51
2021/03/13 04:45:30;;;;;;;2.25;1.08;;;;;;;;;;4980072;28;20385;-51
2021/03/13 04:47:56;;;;;;;1.73;0.63;;;;;;;;;;4987329;28;20108;-48
2021/03/13 04:50:21;;;;;;;1.17;0.70;;;;;;;;;;4984660;28;20034;-52
2021/03/13 04:52:47;;;;;;;0.20;0.20;;;;;;;;;;4980997;28;20031;-50
2021/03/13 04:55:13;;;;;;;4.15;0.70;;;;;;;;;;4975152;28;20027;-50
2021/03/13 04:57:38;;;;;;;1.02;0.55;;;;;;;;;;4988672;28;20041;-51
2021/03/13 05:00:05;;;;;;;3.22;0.65;;;;;;;;;;4984705;28;20691;-53
2021/03/13 05:02:30;;;;;;;0.85;0.63;;;;;;;;;;4984841;28;20042;-52
2021/03/13 05:04:56;;;;;;;1.20;0.45;;;;;;;;;;4984915;28;20077;-52
2021/03/13 05:07:21;;;;;;;1.13;0.85;;;;;;;;;;4972020;28;20350;-51
2021/03/13 05:09:46;;;;;;;3.30;1.05;;;;;;;;;;4988369;28;20034;-51
2021/03/13 05:12:12;;;;;;;2.30;1.15;;;;;;;;;;4986714;28;20170;-53
2021/03/13 05:14:37;;;;;;;1.15;0.60;;;;;;;;;;4981796;28;20062;-51
2021/03/13 05:17:02;;;;;;;0.50;0.50;;;;;;;;;;4984694;28;20065;-51
2021/03/13 05:19:28;;;;;;;2.28;0.47;;;;;;;;;;4984647;28;20186;-53
2021/03/13 05:21:54;;;;;;;0.98;0.55;;;;;;;;;;4984822;28;20030;-51
2021/03/13 05:24:19;;;;;;;1.45;0.65;;;;;;;;;;4987916;28;20767;-50
2021/03/13 05:26:45;;;;;;;2.30;0.63;;;;;;;;;;4984699;28;20444;-48
2021/03/13 05:29:10;;;;;;;2.78;0.80;;;;;;;;;;4976536;28;20030;-53
2021/03/13 05:31:35;;;;;;;4.97;1.30;;;;;;;;;;4984652;28;20077;-47
2021/03/13 05:34:01;;;;;;;3.78;1.15;;;;;;;;;;4985108;28;20039;-54
2021/03/13 05:36:26;;;;;;;3.90;0.70;;;;;;;;;;4981498;28;20038;-52
2021/03/13 05:38:51;;;;;;;0.38;0.20;;;;;;;;;;4984647;28;20098;-51
2021/03/13 05:41:17;;;;;;;1.15;0.85;;;;;;;;;;4983278;28;20031;-53
2021/03/13 05:43:42;;;;;;;2.20;0.63;;;;;;;;;;4974672;28;20416;-53
2021/03/13 05:46:08;;;;;;;0.63;0.30;;;;;;;;;;4985084;28;20508;-48
2021/03/13 05:48:36;;;;;;;0.80;0.45;;;;;;;;;;4980939;28;20363;-54
2021/03/13 05:51:02;;;;;;;1.23;0.38;;;;;;;;;;4987338;28;20108;-54
2021/03/13 05:53:27;;;;;;;4.00;0.55;;;;;;;;;;4979583;28;20019;-50
2021/03/13 05:55:53;;;;;;;1.23;0.17;;;;;;;;;;4984138;28;20036;-51
2021/03/13 05:58:19;;;;;;;2.60;0.95;;;;;;;;;;4982846;28;20138;-53
2021/03/13 06:00:45;;;;;;;1.55;0.57;;;;;;;;;;4983653;28;20643;-52
2021/03/13 06:03:10;;;;;;;1.65;1.10;;;;;;;;;;4979094;28;20030;-54
2021/03/13 06:05:35;;;;;;;4.43;1.02;;;;;;;;;;4982575;28;20037;-48
2021/03/13 06:08:01;;;;;;;2.30;0.77;;;;;;;;;;4987664;28;20038;-54
2021/03/13 06:10:27;;;;;;;5.00;0.30;;;;;;;;;;4983629;28;20480;-52
2021/03/13 06:12:52;;;;;;;5.18;0.57;;;;;;;;;;4987316;28;20116;-52
2021/03/13 06:15:19;;;;;;;2.88;1.17;;;;;;;;;;4981723;28;20105;-50
2021/03/13 06:17:58;;;;;;;16.63;4.00;;;;;;;;;;4977694;28;20112;-53
2021/03/13 06:20:32;;;;;;;0.43;0.28;;;;;;;;;;4982526;28;20019;-47
2021/03/13 06:23:00;;;;;;;1.63;0.63;;;;;;;;;;4975830;28;20406;-52
2021/03/13 06:25:26;;;;;;;1.35;0.60;;;;;;;;;;4980482;28;20137;-53
2021/03/13 06:27:51;;;;;;;2.08;0.50;;;;;;;;;;4979325;28;20074;-53
2021/03/13 06:30:17;;;;;;;3.83;1.10;;;;;;;;;;4980855;28;20109;-53
2021/03/13 06:32:44;;;;;;;0.95;0.57;;;;;;;;;;4965692;28;20045;-53
2021/03/13 06:35:25;;;;;;;1.92;1.13;;;;;;;;;;4982444;28;20048;-53
2021/03/13 06:37:52;;;;;;;6.70;1.67;;;;;;;;;;4974067;28;20046;-50
2021/03/13 06:40:29;;;;;;;0.85;0.57;;;;;;;;;;4980428;28;20358;-50
2021/03/13 06:42:56;;;;;;;2.20;1.00;;;;;;;;;;4974733;28;20114;-49
2021/03/13 06:45:22;;;;;;;4.70;2.20;;;;;;;;;;4983320;28;20489;-49
2021/03/13 06:47:48;;;;;;;3.88;0.82;;;;;;;;;;4985681;28;20050;-50
2021/03/13 06:50:24;;;;;;;5.60;0.47;;;;;;;;;;4983500;28;20111;-50
2021/03/13 06:52:51;;;;;;;9.65;1.17;;;;;;;;;;4983265;28;20035;-48
2021/03/13 06:55:17;;;;;;;2.05;1.38;;;;;;;;;;4975765;28;20046;-51
2021/03/13 06:57:44;;;;;;;1.45;0.88;;;;;;;;;;4978726;28;20505;-51
2021/03/13 07:00:09;;;;;;;3.80;0.77;;;;;;;;;;4982943;28;20027;-53
2021/03/13 07:02:34;;;;;;;1.33;1.08;;;;;;;;;;4984267;28;20509;-49
2021/03/13 07:05:07;;;;;;;1.10;0.73;;;;;;;;;;4974226;28;20034;-47
2021/03/13 07:07:32;;;;;;;9.02;7.55;;;;;;;;;;4987357;28;20035;-51
2021/03/13 07:09:59;;;;;;;28.30;23.40;;;;;;;;;;4968548;28;20030;-51
2021/03/13 07:12:26;;;;;;;29.75;23.70;;;;;;;;;;4990067;28;20038;-48
2021/03/13 07:14:52;;;;;;;14.98;11.88;;;;;;;;;;4982701;28;20105;-53
2021/03/13 07:17:17;;;;;;;17.23;12.07;;;;;;;;;;4982048;28;20496;-53
2021/03/13 07:19:43;;;;;;;9.85;8.85;;;;;;;;;;4987907;28;20027;-51
2021/03/13 07:22:12;;;;;;;10.10;7.80;;;;;;;;;;4982644;28;20121;-52
2021/03/13 07:24:37;;;;;;;10.05;7.60;;;;;;;;;;4985975;28;20030;-49
2021/03/13 07:27:04;;;;;;;6.55;4.55;;;;;;;;;;4985019;28;20454;-49
2021/03/13 07:29:30;;;;;;;4.60;3.55;;;;;;;;;;4973732;28;20065;-51
2021/03/13 07:32:02;;;;;;;5.20;2.85;;;;;;;;;;4990602;28;20775;-50
2021/03/13 07:34:33;;;;;;;11.52;2.60;;;;;;;;;;4985661;28;20073;-53
2021/03/13 07:37:01;;;;;;;8.18;6.15;;;;;;;;;;4982657;28;20041;-50
2021/03/13 07:39:29;;;;;;;6.70;4.20;;;;;;;;;;4985458;28;20045;-50
2021/03/13 07:42:03;;;;;;;2.90;2.20;;;;;;;;;;4972442;28;20034;-50
2021/03/13 07:44:29;;;;;;;8.93;1.15;;;;;;;;;;4972597;28;20041;-50
2021/03/13 07:46:55;;;;;;;1.48;0.98;;;;;;;;;;4985551;28;20061;-52
2021/03/13 07:49:21;;;;;;;6.32;3.45;;;;;;;;;;4979197;28;20381;-54
2021/03/13 07:51:47;;;;;;;5.82;5.22;;;;;;;;;;4986220;28;20222;-52
2021/03/13 07:54:13;;;;;;;6.43;5.28;;;;;;;;;;4987800;28;20779;-53
2021/03/13 07:56:39;;;;;;;6.00;5.40;;;;;;;;;;4985267;28;20031;-52
2021/03/13 07:59:08;;;;;;;7.55;6.80;;;;;;;;;;4984455;28;20030;-54
2021/03/13 08:01:49;;;;;;;7.13;6.43;;;;;;;;;;4985307;28;20061;-55
2021/03/13 08:04:38;;;;;;;8.07;7.38;;;;;;;;;;4977110;28;20192;-51
2021/03/13 08:07:07;;;;;;;8.35;7.55;;;;;;;;;;4974962;28;20073;-52
2021/03/13 08:09:32;;;;;;;11.15;9.35;;;;;;;;;;4988683;28;20472;-53
2021/03/13 08:12:00;;;;;;;17.25;7.05;;;;;;;;;;4977443;28;20130;-52
2021/03/13 08:14:33;;;;;;;11.57;9.13;;;;;;;;;;4984521;28;20116;-48
2021/03/13 08:17:08;;;;;;;8.80;6.97;;;;;;;;;;4981216;28;20050;-51
2021/03/13 08:19:34;;;;;;;4.85;2.92;;;;;;;;;;4982386;28;20034;-55
2021/03/13 08:22:13;;;;;;;5.43;3.80;;;;;;;;;;4989566;28;20097;-52
2021/03/13 08:24:42;;;;;;;15.25;10.45;;;;;;;;;;4977530;28;20030;-54
2021/03/13 08:27:08;;;;;;;23.70;14.75;;;;;;;;;;4983787;28;20031;-54
2021/03/13 08:29:53;;;;;;;9.50;5.80;;;;;;;;;;4981360;28;20034;-50
2021/03/13 08:32:37;;;;;;;8.45;5.13;;;;;;;;;;4983752;28;20046;-52
2021/03/13 08:35:06;;;;;;;12.10;6.50;;;;;;;;;;4977750;28;20539;-52
2021/03/13 08:37:45;;;;;;;8.40;5.30;;;;;;;;;;4978449;28;20054;-51
2021/03/13 08:40:20;;;;;;;5.10;3.70;;;;;;;;;;4988825;28;20030;-49
2021/03/13 08:42:46;;;;;;;5.40;1.70;;;;;;;;;;4979911;28;20038;-54
2021/03/13 08:45:12;;;;;;;1.92;1.25;;;;;;;;;;4982913;28;20033;-51
2021/03/13 08:47:41;;;;;;;2.50;1.17;;;;;;;;;;4975402;28;20520;-49
2021/03/13 08:50:08;;;;;;;6.43;2.75;;;;;;;;;;4985906;28;20037;-53
2021/03/13 08:52:33;;;;;;;5.95;3.80;;;;;;;;;;4982963;28;20035;-54
2021/03/13 08:54:58;;;;;;;7.20;4.60;;;;;;;;;;4974687;28;20029;-52
2021/03/13 08:57:24;;;;;;;6.57;1.98;;;;;;;;;;4977830;28;20027;-54
2021/03/13 08:59:55;;;;;;;4.82;2.05;;;;;;;;;;4985935;28;20556;-51
2021/03/13 09:02:21;;;;;;;4.47;1.90;;;;;;;;;;4983242;28;20030;-51
2021/03/13 09:04:50;;;;;;;6.35;1.83;;;;;;;;;;4982259;28;20060;-51
2021/03/13 09:07:19;;;;;;;2.38;1.27;;;;;;;;;;4977329;28;20039;-51
2021/03/13 09:09:45;;;;;;;6.10;4.55;;;;;;;;;;4972564;28;20041;-55
2021/03/13 09:12:11;;;;;;;4.63;3.70;;;;;;;;;;4977042;28;20098;-51
2021/03/13 09:14:38;;;;;;;8.80;4.70;;;;;;;;;;4977425;28;20026;-52
2021/03/13 09:17:11;;;;;;;15.18;4.93;;;;;;;;;;4959377;28;20054;-52
2021/03/13 09:19:36;;;;;;;20.00;17.95;;;;;;;;;;4952518;28;20064;-54
2021/03/13 09:22:15;;;;;;;12.95;9.10;;;;;;;;;;4970315;28;20461;-54
2021/03/13 09:24:40;;;;;;;22.42;16.00;;;;;;;;;;4973344;28;20132;-51
2021/03/13 09:27:06;;;;;;;23.75;13.38;;;;;;;;;;4978001;28;20540;-51
2021/03/13 09:29:32;;;;;;;25.88;11.40;;;;;;;;;;4962778;28;20027;-53
2021/03/13 09:32:03;;;;;;;14.07;10.50;;;;;;;;;;4976444;28;20425;-48
2021/03/13 09:34:30;;;;;;;27.70;19.70;;;;;;;;;;4981229;28;20023;-48
2021/03/13 09:36:55;;;;;;;25.63;17.50;;;;;;;;;;4984620;28;20034;-51
2021/03/13 09:39:25;;;;;;;13.30;3.67;;;;;;;;;;4981203;28;20033;-51
2021/03/13 09:42:07;;;;;;;11.73;6.30;;;;;;;;;;4969921;28;20046;-50
2021/03/13 09:44:39;;;;;;;9.02;5.43;;;;;;;;;;4982971;28;20387;-53
2021/03/13 09:47:10;;;;;;;4.07;2.17;;;;;;;;;;4987262;28;20042;-49
2021/03/13 09:49:36;;;;;;;5.82;1.85;;;;;;;;;;4981476;28;20047;-53
2021/03/13 09:52:01;;;;;;;8.38;1.35;;;;;;;;;;4970855;28;20026;-55
2021/03/13 09:54:26;;;;;;;2.20;1.25;;;;;;;;;;4974509;28;20022;-51
2021/03/13 09:56:52;;;;;;;2.13;0.75;;;;;;;;;;4970596;28;20081;-51
2021/03/13 09:59:18;;;;;;;3.10;1.15;;;;;;;;;;4973512;28;20034;-51
2021/03/13 10:01:43;;;;;;;2.17;0.93;;;;;;;;;;4978100;28;20429;-49
2021/03/13 10:04:09;;;;;;;2.45;1.20;;;;;;;;;;4987008;28;20022;-51
2021/03/13 10:06:34;;;;;;;1.15;0.57;;;;;;;;;;4978847;28;20057;-54
2021/03/13 10:09:00;;;;;;;1.77;1.05;;;;;;;;;;4977174;28;20128;-57
2021/03/13 10:11:38;;;;;;;1.08;0.73;;;;;;;;;;4983969;28;20046;-56
2021/03/13 10:14:04;;;;;;;3.15;1.13;;;;;;;;;;4977411;28;20022;-55
2021/03/13 10:16:33;;;;;;;2.40;1.00;;;;;;;;;;4982079;28;20058;-54
2021/03/13 10:18:58;;;;;;;1.80;0.75;;;;;;;;;;4987261;28;20037;-57
2021/03/13 10:21:24;;;;;;;3.15;1.08;;;;;;;;;;4978365;28;20446;-58
2021/03/13 10:23:56;;;;;;;11.13;1.40;;;;;;;;;;4982903;28;20065;-55
2021/03/13 10:26:22;;;;;;;1.48;0.88;;;;;;;;;;4982437;28;20034;-53
2021/03/13 10:28:48;;;;;;;3.95;0.98;;;;;;;;;;4984797;28;20037;-54
2021/03/13 10:31:22;;;;;;;2.55;1.08;;;;;;;;;;4981506;28;20101;-58
2021/03/13 10:33:48;;;;;;;8.18;1.08;;;;;;;;;;4985294;28;20030;-57
2021/03/13 10:36:14;;;;;;;4.72;1.70;;;;;;;;;;4978835;28;20116;-58
2021/03/13 10:38:40;;;;;;;3.85;2.05;;;;;;;;;;4979877;28;20061;-55
2021/03/13 10:41:06;;;;;;;7.82;1.90;;;;;;;;;;4984593;28;20065;-55
2021/03/13 10:43:45;;;;;;;3.33;1.17;;;;;;;;;;4972803;28;20082;-52
2021/03/13 10:46:16;;;;;;;5.45;2.08;;;;;;;;;;4980421;28;20537;-55
2021/03/13 10:48:49;;;;;;;4.18;1.25;;;;;;;;;;4977661;28;20045;-55
2021/03/13 10:51:23;;;;;;;18.92;3.08;;;;;;;;;;4966477;28;20038;-54
2021/03/13 10:53:49;;;;;;;10.27;1.58;;;;;;;;;;4986664;28;20030;-57
2021/03/13 10:56:14;;;;;;;1.08;0.80;;;;;;;;;;4982201;28;20038;-58
2021/03/13 10:58:58;;;;;;;17.75;2.40;;;;;;;;;;4978841;28;20026;-58
2021/03/13 11:01:24;;;;;;;3.67;1.50;;;;;;;;;;4980013;28;20057;-54
2021/03/13 11:03:50;;;;;;;4.95;1.85;;;;;;;;;;4980906;28;20053;-57
2021/03/13 11:06:32;;;;;;;2.85;1.95;;;;;;;;;;4980524;28;20042;-60
2021/03/13 11:09:02;;;;;;;2.20;1.48;;;;;;;;;;4978443;28;20030;-53
2021/03/13 11:11:28;;;;;;;7.40;2.03;;;;;;;;;;4982759;28;20045;-53
2021/03/13 11:13:54;;;;;;;5.68;1.15;;;;;;;;;;4985070;28;20893;-52
2021/03/13 11:16:21;;;;;;;1.80;0.73;;;;;;;;;;4979277;28;20075;-55
2021/03/13 11:18:46;;;;;;;3.40;2.22;;;;;;;;;;4982523;28;20038;-49
2021/03/13 11:21:12;;;;;;;1.25;0.95;;;;;;;;;;4978419;28;20128;-50
2021/03/13 11:23:37;;;;;;;5.97;5.38;;;;;;;;;;4982073;28;20518;-50
2021/03/13 11:26:03;;;;;;;4.07;3.15;;;;;;;;;;4957409;28;20085;-58
2021/03/13 11:28:28;;;;;;;9.45;2.42;;;;;;;;;;4977537;28;20042;-50
2021/03/13 11:30:53;;;;;;;4.97;2.72;;;;;;;;;;4973331;28;20055;-50
2021/03/13 11:33:19;;;;;;;3.72;1.88;;;;;;;;;;4979337;28;20108;-54
2021/03/13 11:35:44;;;;;;;2.38;1.15;;;;;;;;;;4972516;28;20066;-52
2021/03/13 11:38:10;;;;;;;4.70;1.58;;;;;;;;;;4980785;28;20042;-51
2021/03/13 11:40:35;;;;;;;3.95;1.52;;;;;;;;;;4978510;28;20848;-53
2021/03/13 11:43:01;;;;;;;6.60;1.58;;;;;;;;;;4975506;28;20030;-53
2021/03/13 11:45:27;;;;;;;2.90;1.65;;;;;;;;;;4982197;28;20570;-49
2021/03/13 11:47:55;;;;;;;3.85;1.58;;;;;;;;;;4982051;28;20026;-57
2021/03/13 11:50:21;;;;;;;3.95;1.27;;;;;;;;;;4981562;28;20464;-50
2021/03/13 11:52:47;;;;;;;3.33;1.98;;;;;;;;;;4967204;28;20034;-55
2021/03/13 11:55:13;;;;;;;5.10;1.80;;;;;;;;;;4984205;28;20373;-54
2021/03/13 11:57:38;;;;;;;1.70;0.47;;;;;;;;;;4986135;28;20061;-54
2021/03/13 12:00:10;;;;;;;3.83;1.40;;;;;;;;;;4978150;28;20022;-54
2021/03/13 12:02:36;;;;;;;5.10;1.25;;;;;;;;;;4966248;28;20038;-50
2021/03/13 12:05:02;;;;;;;3.05;1.48;;;;;;;;;;4987022;28;20029;-51
2021/03/13 12:07:27;;;;;;;3.47;1.20;;;;;;;;;;4969327;28;20061;-58
2021/03/13 12:09:52;;;;;;;2.42;1.25;;;;;;;;;;4985344;28;20444;-51
2021/03/13 12:12:18;;;;;;;1.40;0.77;;;;;;;;;;4976849;28;20058;-56
2021/03/13 12:14:43;;;;;;;7.30;1.45;;;;;;;;;;4977119;28;20081;-51
2021/03/13 12:17:11;;;;;;;3.08;1.20;;;;;;;;;;4973795;28;20116;-50
2021/03/13 12:19:36;;;;;;;15.15;1.63;;;;;;;;;;4961264;28;20034;-54
2021/03/13 12:22:02;;;;;;;5.03;2.28;;;;;;;;;;4984197;28;20136;-51
2021/03/13 12:24:27;;;;;;;3.58;0.88;;;;;;;;;;4978066;28;20030;-52
2021/03/13 12:26:52;;;;;;;3.65;1.65;;;;;;;;;;4976970;28;20084;-51
2021/03/13 12:29:18;;;;;;;7.40;2.88;;;;;;;;;;4980246;28;20820;-50
2021/03/13 12:31:44;;;;;;;4.10;1.73;;;;;;;;;;4976178;28;20556;-49
2021/03/13 12:34:09;;;;;;;10.05;2.63;;;;;;;;;;4977665;28;20152;-55
2021/03/13 12:36:34;;;;;;;21.58;3.65;;;;;;;;;;4975309;28;20042;-54
2021/03/13 12:39:00;;;;;;;8.35;1.90;;;;;;;;;;4980223;28;20085;-56
2021/03/13 12:41:25;;;;;;;2.85;1.40;;;;;;;;;;4978477;28;20083;-54
2021/03/13 12:43:51;;;;;;;7.40;1.45;;;;;;;;;;4980124;28;20109;-54
2021/03/13 12:46:17;;;;;;;2.15;1.25;;;;;;;;;;4980342;28;20039;-55
2021/03/13 12:48:46;;;;;;;3.15;0.88;;;;;;;;;;4986328;28;20068;-58
2021/03/13 12:51:12;;;;;;;3.42;1.55;;;;;;;;;;4967085;28;20517;-51
2021/03/13 12:53:37;;;;;;;10.25;2.20;;;;;;;;;;4981456;28;20118;-58
2021/03/13 12:56:03;;;;;;;13.13;1.95;;;;;;;;;;4982605;28;20054;-53
2021/03/13 12:58:28;;;;;;;4.20;1.20;;;;;;;;;;4981200;28;20146;-51
2021/03/13 13:00:54;;;;;;;2.05;1.00;;;;;;;;;;4979322;28;20026;-50
2021/03/13 13:03:19;;;;;;;2.75;1.70;;;;;;;;;;4986966;28;20757;-54
2021/03/13 13:05:44;;;;;;;3.17;1.65;;;;;;;;;;4984293;28;20058;-54
2021/03/13 13:08:10;;;;;;;1.85;1.05;;;;;;;;;;4977237;28;20043;-46
2021/03/13 13:10:35;;;;;;;5.32;2.78;;;;;;;;;;4980411;28;20030;-49
2021/03/13 13:13:01;;;;;;;5.43;1.33;;;;;;;;;;4984442;28;20105;-53
2021/03/13 13:15:26;;;;;;;2.33;1.45;;;;;;;;;;4976055;28;20594;-49
2021/03/13 13:17:51;;;;;;;3.17;1.70;;;;;;;;;;4973417;28;20496;-55
2021/03/13 13:20:18;;;;;;;6.55;2.90;;;;;;;;;;4978238;28;20054;-57
2021/03/13 13:22:43;;;;;;;2.75;1.25;;;;;;;;;;4974382;28;20027;-55
2021/03/13 13:25:09;;;;;;;10.13;2.35;;;;;;;;;;4977704;28;20026;-53
2021/03/13 13:27:35;;;;;;;3.53;1.75;;;;;;;;;;4977843;28;20109;-49
2021/03/13 13:30:00;;;;;;;10.75;2.17;;;;;;;;;;4979862;28;20129;-56
2021/03/13 13:32:26;;;;;;;6.72;2.88;;;;;;;;;;4976369;28;20043;-54
2021/03/13 13:34:51;;;;;;;2.75;1.00;;;;;;;;;;4977931;28;20148;-52
2021/03/13 13:37:17;;;;;;;1.83;0.70;;;;;;;;;;4959827;28;20036;-54
2021/03/13 13:39:43;;;;;;;2.08;1.00;;;;;;;;;;4975712;28;20037;-54
2021/03/13 13:42:08;;;;;;;2.80;0.90;;;;;;;;;;4973595;28;20038;-57
2021/03/13 13:44:34;;;;;;;2.80;0.77;;;;;;;;;;4976971;28;20030;-52
2021/03/13 13:46:59;;;;;;;5.07;3.17;;;;;;;;;;4975199;28;20031;-52
2021/03/13 13:49:24;;;;;;;4.15;2.28;;;;;;;;;;4976672;28;20037;-52
2021/03/13 13:51:50;;;;;;;10.70;1.35;;;;;;;;;;4979785;28;20037;-52
2021/03/13 13:54:15;;;;;;;6.72;1.17;;;;;;;;;;4978182;28;20092;-56
2021/03/13 13:56:40;;;;;;;11.70;3.53;;;;;;;;;;4974940;28;20037;-57
2021/03/13 13:59:06;;;;;;;6.80;2.15;;;;;;;;;;4978616;28;20137;-54
2021/03/13 14:01:32;;;;;;;7.55;3.38;;;;;;;;;;4959948;28;20554;-55
2021/03/13 14:03:58;;;;;;;3.72;2.33;;;;;;;;;;4977113;28;20030;-56
2021/03/13 14:06:23;;;;;;;4.07;1.83;;;;;;;;;;4975818;28;20080;-49
2021/03/13 14:08:49;;;;;;;10.88;1.48;;;;;;;;;;4958811;28;20046;-52
2021/03/13 14:11:14;;;;;;;20.17;3.22;;;;;;;;;;4972684;28;20492;-56
2021/03/13 14:13:39;;;;;;;8.77;5.68;;;;;;;;;;4977244;28;20116;-47
2021/03/13 14:16:05;;;;;;;4.72;2.08;;;;;;;;;;4977252;28;20045;-54
2021/03/13 14:18:30;;;;;;;9.02;3.00;;;;;;;;;;4976696;28;20039;-54
2021/03/13 14:20:55;;;;;;;5.00;1.63;;;;;;;;;;4973888;28;20034;-53
2021/03/13 14:23:21;;;;;;;5.50;2.58;;;;;;;;;;4970559;28;20027;-51
2021/03/13 14:25:46;;;;;;;5.68;2.38;;;;;;;;;;4969316;28;20169;-55
2021/03/13 14:28:11;;;;;;;4.10;2.08;;;;;;;;;;4971534;28;20039;-54
2021/03/13 14:30:36;;;;;;;4.32;1.83;;;;;;;;;;4968955;28;20022;-55
2021/03/13 14:33:02;;;;;;;5.10;1.58;;;;;;;;;;4968252;28;20027;-56
2021/03/13 14:35:27;;;;;;;2.00;0.75;;;;;;;;;;4968728;28;20061;-52
2021/03/13 14:37:53;;;;;;;4.97;2.60;;;;;;;;;;4971191;28;20377;-54
2021/03/13 14:40:19;;;;;;;3.05;1.08;;;;;;;;;;4977145;28;20033;-52